createdAt,value
2019-05-15T00:02:10.827Z,20.60
2019-05-15T00:05:18.961Z,20.60
2019-05-15T00:08:28.713Z,20.50
2019-05-15T00:25:53.336Z,20.40
2019-05-15T00:29:45.299Z,20.40
2019-05-15T00:46:26.160Z,20.30
2019-05-15T00:49:33.299Z,20.30
2019-05-15T00:52:39.362Z,20.30
2019-05-15T00:55:48.567Z,20.30
2019-05-15T00:58:54.487Z,20.30
2019-05-15T01:02:02.101Z,20.30
2019-05-15T01:05:08.274Z,20.30
2019-05-15T01:08:15.086Z,20.30
2019-05-15T01:11:21.104Z,20.20
2019-05-15T01:14:27.839Z,20.30
2019-05-15T01:17:35.484Z,20.30
2019-05-15T01:20:44.005Z,20.30
2019-05-15T01:23:50.028Z,20.20
2019-05-15T01:26:55.800Z,20.20
2019-05-15T01:30:01.541Z,20.20
2019-05-15T01:33:08.723Z,20.20
2019-05-15T01:36:15.244Z,20.20
2019-05-15T01:39:20.761Z,20.20
2019-05-15T01:42:28.277Z,20.20
2019-05-15T01:45:34.017Z,20.20
2019-05-15T01:48:40.766Z,20.20
2019-05-15T01:51:47.982Z,20.20
2019-05-15T01:54:55.014Z,20.20
2019-05-15T01:58:02.768Z,20.20
2019-05-15T02:01:08.925Z,20.20
2019-05-15T02:04:14.906Z,20.10
2019-05-15T02:07:24.060Z,20.10
2019-05-15T02:10:30.911Z,20.10
2019-05-15T02:13:38.720Z,20.10
2019-05-15T02:16:44.057Z,20.10
2019-05-15T02:19:50.016Z,20.10
2019-05-15T02:22:55.880Z,20.10
2019-05-15T02:26:01.620Z,20.10
2019-05-15T02:29:07.864Z,20.10
2019-05-15T02:32:14.772Z,20.10
2019-05-15T02:35:21.929Z,20.10
2019-05-15T02:38:29.569Z,20.00
2019-05-15T02:41:35.658Z,20.10
2019-05-15T02:44:43.097Z,20.00
2019-05-15T02:47:51.134Z,20.00
2019-05-15T02:50:58.894Z,20.00
2019-05-15T02:54:03.996Z,20.10
2019-05-15T02:57:11.236Z,20.00
2019-05-15T03:00:36.602Z,20.00
2019-05-15T03:03:29.164Z,20.00
2019-05-15T03:06:32.482Z,20.00
2019-05-15T03:09:39.975Z,20.00
2019-05-15T03:12:49.326Z,19.90
2019-05-15T03:15:55.048Z,19.90
2019-05-15T03:19:00.900Z,19.90
2019-05-15T03:22:09.916Z,19.90
2019-05-15T03:25:19.184Z,19.90
2019-05-15T03:28:24.979Z,19.90
2019-05-15T03:31:50.616Z,19.90
2019-05-15T03:34:46.890Z,19.90
2019-05-15T03:37:49.284Z,19.90
2019-05-15T03:40:55.421Z,19.90
2019-05-15T03:44:03.785Z,19.90
2019-05-15T03:47:09.684Z,19.80
2019-05-15T03:50:15.351Z,19.80
2019-05-15T03:53:21.193Z,19.80
2019-05-15T03:56:29.543Z,19.80
2019-05-15T03:59:34.242Z,19.80
2019-05-15T04:02:39.985Z,19.80
2019-05-15T04:05:45.615Z,19.80
2019-05-15T04:08:52.616Z,19.80
2019-05-15T04:12:00.053Z,19.80
2019-05-15T04:15:06.050Z,19.80
2019-05-15T04:18:11.578Z,19.70
2019-05-15T04:21:19.983Z,19.80
2019-05-15T04:24:25.517Z,19.80
2019-05-15T04:27:32.021Z,19.70
2019-05-15T04:30:39.187Z,19.70
2019-05-15T04:33:48.850Z,19.70
2019-05-15T04:36:53.812Z,19.70
2019-05-15T04:40:00.454Z,19.70
2019-05-15T04:43:06.282Z,19.70
2019-05-15T04:46:12.194Z,19.70
2019-05-15T04:49:19.277Z,19.70
2019-05-15T04:52:25.001Z,19.70
2019-05-15T04:55:30.773Z,19.70
2019-05-15T04:58:39.529Z,19.80
2019-05-15T05:01:45.721Z,19.80
2019-05-15T05:04:51.609Z,19.90
2019-05-15T05:07:59.697Z,19.90
2019-05-15T05:11:05.188Z,19.90
2019-05-15T05:14:10.976Z,19.90
2019-05-15T05:17:19.055Z,20.00
2019-05-15T05:20:25.902Z,20.00
2019-05-15T05:23:31.520Z,20.00
2019-05-15T05:26:38.226Z,20.00
2019-05-15T05:29:47.933Z,20.00
2019-05-15T05:32:54.909Z,20.00
2019-05-15T05:36:02.307Z,20.00
2019-05-15T05:39:09.595Z,20.00
2019-05-15T05:42:18.374Z,20.10
2019-05-15T05:45:23.534Z,20.10
2019-05-15T05:48:29.360Z,20.10
2019-05-15T05:51:38.700Z,20.10
2019-05-15T05:54:44.284Z,20.10
2019-05-15T05:57:50.000Z,20.10
2019-05-15T06:00:58.619Z,20.10
2019-05-15T06:04:04.785Z,20.10
2019-05-15T06:07:14.258Z,20.20
2019-05-15T06:10:18.284Z,20.20
2019-05-15T06:13:25.508Z,20.10
2019-05-15T06:16:31.645Z,20.20
2019-05-15T06:19:38.614Z,20.20
2019-05-15T06:22:47.921Z,20.20
2019-05-15T06:25:53.113Z,20.20
2019-05-15T06:28:59.572Z,20.20
2019-05-15T06:32:05.009Z,20.20
2019-05-15T06:35:10.749Z,20.30
2019-05-15T06:38:19.447Z,20.30
2019-05-15T06:41:24.381Z,20.30
2019-05-15T06:44:29.859Z,20.30
2019-05-15T06:47:36.442Z,20.30
2019-05-15T06:50:42.656Z,20.30
2019-05-15T06:53:49.117Z,20.30
2019-05-15T06:56:54.905Z,20.30
2019-05-15T07:00:02.227Z,20.30
2019-05-15T07:03:20.185Z,20.30
2019-05-15T07:06:17.950Z,20.30
2019-05-15T07:09:23.004Z,20.30
2019-05-15T07:12:28.461Z,20.30
2019-05-15T07:15:34.956Z,20.40
2019-05-15T07:18:40.521Z,20.40
2019-05-15T07:21:48.515Z,20.40
2019-05-15T07:24:53.902Z,20.50
2019-05-15T07:28:03.272Z,20.40
2019-05-15T07:31:19.849Z,20.40
2019-05-15T07:34:28.245Z,20.60
2019-05-15T07:37:34.536Z,20.70
2019-05-15T07:40:41.822Z,20.80
2019-05-15T07:43:49.446Z,20.80
2019-05-15T07:46:58.456Z,20.80
2019-05-15T07:50:39.881Z,20.90
2019-05-15T07:53:45.281Z,21.00
2019-05-15T07:56:52.562Z,21.00
2019-05-15T07:59:58.814Z,21.00
2019-05-15T08:03:04.601Z,21.00
2019-05-15T08:06:10.602Z,21.10
2019-05-15T08:09:17.991Z,21.10
2019-05-15T08:12:23.607Z,21.20
2019-05-15T08:15:31.804Z,21.20
2019-05-15T08:18:39.516Z,21.20
2019-05-15T08:21:51.428Z,21.20
2019-05-15T08:24:54.484Z,21.20
2019-05-15T08:28:00.944Z,21.30
2019-05-15T08:31:10.210Z,21.30
2019-05-15T08:34:16.407Z,21.30
2019-05-15T08:37:24.549Z,21.30
2019-05-15T08:40:32.249Z,21.30
2019-05-15T08:43:39.532Z,21.40
2019-05-15T08:46:48.006Z,21.40
2019-05-15T08:49:57.943Z,21.40
2019-05-15T08:53:08.236Z,21.50
2019-05-15T08:56:14.866Z,21.40
2019-05-15T08:59:20.449Z,21.50
2019-05-15T09:02:28.540Z,21.40
2019-05-15T09:05:38.757Z,21.40
2019-05-15T09:08:43.725Z,21.40
2019-05-15T09:11:49.284Z,21.20
2019-05-15T09:14:58.227Z,21.10
2019-05-15T09:18:13.500Z,21.10
2019-05-15T09:21:14.874Z,21.00
2019-05-15T09:24:20.778Z,20.90
2019-05-15T09:27:27.911Z,20.90
2019-05-15T09:30:33.379Z,20.90
2019-05-15T09:33:40.612Z,20.90
2019-05-15T09:36:48.391Z,20.80
2019-05-15T09:39:54.445Z,20.80
2019-05-15T09:43:00.032Z,20.80
2019-05-15T09:46:10.136Z,20.80
2019-05-15T09:49:14.482Z,20.80
2019-05-15T09:52:23.022Z,20.80
2019-05-15T09:55:30.529Z,20.70
2019-05-15T09:58:38.103Z,20.70
2019-05-15T10:01:44.962Z,20.70
2019-05-15T10:05:05.480Z,20.70
2019-05-15T10:08:02.060Z,20.70
2019-05-15T10:11:09.279Z,20.70
2019-05-15T10:14:19.723Z,20.70
2019-05-15T10:17:25.211Z,20.80
2019-05-15T10:20:31.881Z,20.80
2019-05-15T10:28:48.842Z,20.80
2019-05-15T10:31:54.264Z,20.80
2019-05-15T10:35:02.121Z,20.80
2019-05-15T10:38:10.582Z,20.80
2019-05-15T10:41:18.765Z,20.80
2019-05-15T10:44:25.705Z,20.80
2019-05-15T10:47:32.565Z,20.80
2019-05-15T10:50:41.193Z,20.80
2019-05-15T10:53:48.782Z,20.90
2019-05-15T10:56:54.029Z,20.80
2019-05-15T11:00:00.612Z,20.90
2019-05-15T11:03:08.897Z,20.80
2019-05-15T11:06:14.530Z,20.90
2019-05-15T11:09:20.999Z,20.90
2019-05-15T11:12:29.813Z,20.90
2019-05-15T11:15:35.218Z,20.90
2019-05-15T11:18:40.964Z,20.90
2019-05-15T11:21:48.554Z,20.90
2019-05-15T11:24:59.289Z,20.90
2019-05-15T11:28:04.100Z,20.90
2019-05-15T11:31:12.370Z,20.90
2019-05-15T11:34:18.569Z,20.90
2019-05-15T11:37:24.337Z,20.90
2019-05-15T11:40:31.700Z,20.80
2019-05-15T11:43:38.543Z,20.90
2019-05-15T11:46:45.932Z,20.80
2019-05-15T11:49:54.313Z,20.90
2019-05-15T11:53:03.352Z,20.90
2019-05-15T11:56:09.515Z,20.90
2019-05-15T11:59:15.220Z,20.90
2019-05-15T12:02:21.789Z,20.90
2019-05-15T12:05:28.823Z,20.90
2019-05-15T12:08:34.422Z,20.90
2019-05-15T12:11:40.953Z,20.90
2019-05-15T12:14:49.434Z,21.00
2019-05-15T12:17:59.191Z,21.00
2019-05-15T12:21:04.813Z,21.00
2019-05-15T12:24:12.097Z,20.90
2019-05-15T12:27:18.366Z,21.00
2019-05-15T12:30:24.637Z,21.00
2019-05-15T12:33:30.283Z,20.90
2019-05-15T12:36:51.401Z,20.90
2019-05-15T12:39:45.429Z,20.90
2019-05-15T13:01:38.686Z,21.10
2019-05-15T13:13:54.733Z,21.10
2019-05-15T13:17:00.160Z,21.10
2019-05-15T13:20:08.862Z,21.10
2019-05-15T13:23:15.469Z,21.10
2019-05-15T13:26:26.185Z,21.10
2019-05-15T13:29:29.027Z,21.10
2019-05-15T13:32:34.640Z,21.10
2019-05-15T13:35:41.186Z,21.10
2019-05-15T13:38:48.222Z,21.20
2019-05-15T13:41:53.939Z,21.20
2019-05-15T13:45:00.344Z,21.20
2019-05-15T13:48:05.856Z,21.20
2019-05-15T13:51:13.099Z,21.20
2019-05-15T13:54:18.879Z,21.20
2019-05-15T13:57:24.554Z,21.20
2019-05-15T14:00:31.552Z,21.20
2019-05-15T14:03:39.004Z,21.20
2019-05-15T14:06:45.501Z,21.20
2019-05-15T14:09:51.033Z,21.20
2019-05-15T14:12:58.363Z,21.20
2019-05-15T14:16:05.768Z,21.10
2019-05-15T14:19:12.281Z,21.10
2019-05-15T14:22:20.941Z,21.20
2019-05-15T14:25:26.352Z,21.10
2019-05-15T14:28:33.338Z,21.10
2019-05-15T14:31:39.483Z,21.10
2019-05-15T14:34:48.364Z,21.10
2019-05-15T14:38:03.531Z,21.10
2019-05-15T14:41:02.177Z,21.10
2019-05-15T14:44:17.411Z,21.10
2019-05-15T14:47:19.054Z,21.10
2019-05-15T14:50:23.765Z,21.10
2019-05-15T14:53:30.369Z,21.10
2019-05-15T14:56:35.769Z,21.10
2019-05-15T14:59:41.393Z,21.10
2019-05-15T15:02:49.274Z,21.10
2019-05-15T15:05:54.944Z,21.10
2019-05-15T15:09:00.412Z,21.10
2019-05-15T15:12:07.767Z,21.10
2019-05-15T15:15:18.181Z,21.10
2019-05-15T15:18:23.733Z,21.10
2019-05-15T15:21:31.026Z,21.10
2019-05-15T15:24:39.127Z,21.10
2019-05-15T15:27:44.713Z,21.10
2019-05-15T15:30:51.592Z,21.10
2019-05-15T15:33:57.930Z,21.10
2019-05-15T15:37:05.100Z,21.10
2019-05-15T15:40:11.041Z,21.10
2019-05-15T15:43:16.516Z,21.10
2019-05-15T15:46:22.014Z,21.10
2019-05-15T15:49:28.636Z,21.10
2019-05-15T15:52:34.229Z,21.10
2019-05-15T15:55:39.699Z,21.10
2019-05-15T15:58:48.871Z,21.10
2019-05-15T16:01:54.085Z,21.10
2019-05-15T16:05:03.096Z,21.20
2019-05-15T16:08:10.596Z,21.10
2019-05-15T16:11:18.615Z,21.10
2019-05-15T16:14:24.989Z,21.20
2019-05-15T16:17:30.529Z,21.10
2019-05-15T16:20:39.655Z,21.20
2019-05-15T16:23:48.017Z,21.20
2019-05-15T16:26:53.198Z,21.10
2019-05-15T16:29:58.808Z,21.10
2019-05-15T16:33:04.219Z,21.10
2019-05-15T16:36:11.916Z,21.10
2019-05-15T16:39:18.234Z,21.20
2019-05-15T16:42:25.241Z,21.10
2019-05-15T16:45:31.641Z,21.10
2019-05-15T16:48:39.246Z,21.10
2019-05-15T16:51:49.185Z,21.20
2019-05-15T16:54:58.147Z,21.10
2019-05-15T16:58:09.158Z,21.20
2019-05-15T17:01:14.774Z,21.20
2019-05-15T17:04:21.367Z,21.20
2019-05-15T17:07:29.014Z,21.20
2019-05-15T17:10:35.656Z,21.20
2019-05-15T17:13:41.221Z,21.20
2019-05-15T17:16:49.952Z,21.20
2019-05-15T17:19:57.809Z,21.20
2019-05-15T17:23:02.510Z,21.20
2019-05-15T17:26:09.036Z,21.20
2019-05-15T17:29:15.633Z,21.20
2019-05-15T17:32:21.039Z,21.20
2019-05-15T17:35:27.752Z,21.30
2019-05-15T17:38:34.456Z,21.40
2019-05-15T17:41:40.008Z,21.40
2019-05-15T17:44:45.609Z,21.50
2019-05-15T17:47:51.027Z,21.60
2019-05-15T17:50:58.433Z,21.70
2019-05-15T17:54:05.364Z,21.70
2019-05-15T17:57:11.702Z,21.80
2019-05-15T18:00:19.571Z,21.80
2019-05-15T18:03:28.561Z,21.90
2019-05-15T18:06:33.532Z,21.90
2019-05-15T18:09:50.716Z,22.00
2019-05-15T18:12:48.782Z,22.00
2019-05-15T18:15:54.719Z,22.00
2019-05-15T18:19:01.181Z,22.00
2019-05-15T18:22:08.995Z,22.00
2019-05-15T18:25:18.320Z,22.00
2019-05-15T18:28:25.101Z,22.00
2019-05-15T18:31:30.909Z,22.00
2019-05-15T18:34:39.556Z,22.10
2019-05-15T18:37:48.345Z,22.10
2019-05-15T18:40:54.880Z,22.10
2019-05-15T18:44:00.285Z,22.10
2019-05-15T18:47:05.797Z,22.20
2019-05-15T18:50:13.504Z,22.20
2019-05-15T18:53:20.243Z,22.30
2019-05-15T18:56:29.452Z,22.30
2019-05-15T18:59:33.792Z,22.30
2019-05-15T19:02:40.768Z,22.40
2019-05-15T19:05:49.873Z,22.40
2019-05-15T19:08:55.364Z,22.50
2019-05-15T19:12:04.548Z,22.50
2019-05-15T19:15:11.365Z,22.50
2019-05-15T19:18:18.657Z,22.60
2019-05-15T19:21:24.135Z,22.60
2019-05-15T19:24:29.528Z,22.60
2019-05-15T19:27:39.190Z,22.70
2019-05-15T19:30:44.836Z,22.70
2019-05-15T19:33:50.458Z,22.70
2019-05-15T19:36:58.201Z,22.70
2019-05-15T19:40:03.687Z,22.70
2019-05-15T19:43:09.300Z,22.60
2019-05-15T19:46:15.149Z,22.60
2019-05-15T19:49:21.941Z,22.60
2019-05-15T19:52:29.284Z,22.60
2019-05-15T19:55:36.125Z,22.60
2019-05-15T19:58:41.529Z,22.50
2019-05-15T20:01:48.602Z,22.50
2019-05-15T20:04:54.292Z,22.50
2019-05-15T20:07:59.876Z,22.50
2019-05-15T20:11:05.452Z,22.50
2019-05-15T20:14:11.168Z,22.40
2019-05-15T20:17:18.328Z,22.40
2019-05-15T20:20:24.000Z,22.40
2019-05-15T20:23:31.009Z,22.30
2019-05-15T20:26:38.160Z,22.30
2019-05-15T20:29:44.734Z,22.30
2019-05-15T20:32:50.336Z,22.30
2019-05-15T20:35:58.737Z,22.30
2019-05-15T20:39:08.156Z,22.20
2019-05-15T20:42:13.188Z,22.20
2019-05-15T20:45:20.625Z,22.20
2019-05-15T20:48:26.119Z,22.20
2019-05-15T20:51:31.544Z,22.10
2019-05-15T20:54:38.647Z,22.10
2019-05-15T20:57:47.745Z,22.10
2019-05-15T21:00:52.529Z,22.10
2019-05-15T21:03:59.649Z,22.10
2019-05-15T21:07:07.886Z,22.00
2019-05-15T21:10:15.778Z,22.00
2019-05-15T21:13:23.076Z,22.00
2019-05-15T21:16:28.544Z,22.00
2019-05-15T21:19:38.435Z,21.90
2019-05-15T21:22:43.133Z,21.90
2019-05-15T21:25:48.592Z,21.90
2019-05-15T21:28:54.127Z,21.90
2019-05-15T21:32:00.653Z,21.90
2019-05-15T21:35:08.789Z,21.80
2019-05-15T21:38:13.149Z,21.80
2019-05-15T21:41:18.992Z,21.80
2019-05-15T21:44:26.069Z,21.80
2019-05-15T21:47:34.337Z,21.80
2019-05-15T21:50:41.688Z,21.80
2019-05-15T21:53:47.797Z,21.80
2019-05-15T21:57:06.761Z,21.70
2019-05-15T22:00:02.396Z,21.70
2019-05-15T22:03:10.893Z,21.70
2019-05-15T22:06:18.562Z,21.60
2019-05-15T22:09:33.856Z,21.60
2019-05-15T22:12:40.689Z,21.60
2019-05-15T22:15:47.945Z,21.60
2019-05-15T22:18:53.290Z,21.50
2019-05-15T22:22:00.709Z,21.50
2019-05-15T22:25:11.258Z,21.50
2019-05-15T22:28:15.676Z,21.50
2019-05-15T22:31:21.248Z,21.50
2019-05-15T22:34:30.229Z,21.50
2019-05-15T22:37:38.681Z,21.50
2019-05-15T22:40:43.391Z,21.50
2019-05-15T22:43:48.813Z,21.50
2019-05-15T22:46:54.320Z,21.50
2019-05-15T22:49:59.746Z,21.50
2019-05-15T22:53:06.950Z,21.40
2019-05-15T22:56:13.620Z,21.50
2019-05-15T22:59:20.023Z,21.40
2019-05-15T23:02:25.720Z,21.40
2019-05-15T23:05:31.944Z,21.40
2019-05-15T23:08:38.433Z,21.40
2019-05-15T23:11:45.244Z,21.40
2019-05-15T23:14:50.653Z,21.40
2019-05-15T23:17:58.219Z,21.40
2019-05-15T23:21:05.137Z,21.40
2019-05-15T23:24:12.370Z,21.40
2019-05-15T23:27:18.204Z,21.30
2019-05-15T23:30:23.633Z,21.30
2019-05-15T23:33:29.042Z,21.30
2019-05-15T23:36:34.504Z,21.30
2019-05-15T23:39:40.088Z,21.30
2019-05-15T23:42:45.740Z,21.30
2019-05-15T23:45:53.876Z,21.30
2019-05-15T23:48:59.330Z,21.30
2019-05-15T23:52:05.017Z,21.30
2019-05-15T23:55:12.989Z,21.20
2019-05-15T23:58:19.608Z,21.20
